createdAt,value
2018-03-31T00:00:39.540Z,99334.06
2018-03-31T00:03:06.383Z,99336.90
2018-03-31T00:05:33.291Z,99329.64
2018-03-31T00:08:00.142Z,99317.78
2018-03-31T00:10:27.070Z,99313.16
2018-03-31T00:12:54.781Z,99314.06
2018-03-31T00:15:21.679Z,99309.30
2018-03-31T00:17:48.611Z,99309.91
2018-03-31T00:20:15.471Z,99321.77
2018-03-31T00:22:42.325Z,99317.45
2018-03-31T00:25:09.154Z,99322.15
2018-03-31T00:27:36.007Z,99322.13
2018-03-31T00:30:03.455Z,99309.84
2018-03-31T00:32:30.307Z,99295.14
2018-03-31T00:34:57.151Z,99295.62
2018-03-31T00:37:24.018Z,99288.62
2018-03-31T00:39:50.862Z,99279.77
2018-03-31T00:42:17.742Z,99282.03
2018-03-31T00:44:44.594Z,99292.92
2018-03-31T00:47:11.530Z,99274.18
2018-03-31T00:49:38.474Z,99273.55
2018-03-31T00:52:05.339Z,99270.22
2018-03-31T00:54:32.182Z,99264.64
2018-03-31T00:56:59.039Z,99265.62
2018-03-31T00:59:25.955Z,99271.77
2018-03-31T01:01:52.838Z,99268.79
2018-03-31T01:04:19.782Z,99280.27
2018-03-31T01:06:46.639Z,99288.05
2018-03-31T01:09:13.572Z,99282.00
2018-03-31T01:11:40.436Z,99285.39
2018-03-31T01:14:07.274Z,99286.70
2018-03-31T01:16:34.198Z,99284.02
2018-03-31T01:19:01.047Z,99281.10
2018-03-31T01:21:27.917Z,99280.98
2018-03-31T01:23:54.821Z,99290.79
2018-03-31T01:26:21.767Z,99287.27
2018-03-31T01:28:48.707Z,99282.69
2018-03-31T01:31:15.654Z,99279.94
2018-03-31T01:33:42.599Z,99275.44
2018-03-31T01:36:09.546Z,99287.52
2018-03-31T01:38:36.391Z,99285.72
2018-03-31T01:41:03.258Z,99289.36
2018-03-31T01:43:30.117Z,99294.97
2018-03-31T01:45:57.018Z,99284.92
2018-03-31T01:48:23.975Z,99285.28
2018-03-31T01:50:50.914Z,99279.86
2018-03-31T01:53:17.763Z,99278.34
2018-03-31T01:55:44.626Z,99282.48
2018-03-31T01:58:11.487Z,99280.21
2018-03-31T02:00:38.375Z,99276.76
2018-03-31T02:03:05.233Z,99276.52
2018-03-31T02:05:32.077Z,99274.16
2018-03-31T02:07:58.939Z,99274.11
2018-03-31T02:10:25.797Z,99280.98
2018-03-31T02:12:52.659Z,99283.13
2018-03-31T02:15:19.499Z,99273.16
2018-03-31T02:17:46.370Z,99280.56
2018-03-31T02:20:13.228Z,99278.45
2018-03-31T02:22:40.084Z,99277.02
2018-03-31T02:25:06.926Z,99281.47
2018-03-31T02:27:33.782Z,99278.22
2018-03-31T02:30:00.636Z,99280.48
2018-03-31T02:32:27.528Z,99276.33
2018-03-31T02:34:54.470Z,99288.02
2018-03-31T02:37:21.324Z,99298.02
2018-03-31T02:39:48.171Z,99289.63
2018-03-31T02:42:15.117Z,99295.52
2018-03-31T02:44:41.963Z,99291.51
2018-03-31T02:47:08.816Z,99294.36
2018-03-31T02:49:35.672Z,99294.66
2018-03-31T02:52:02.566Z,99296.92
2018-03-31T02:54:29.415Z,99286.19
2018-03-31T02:56:56.268Z,99282.13
2018-03-31T02:59:23.110Z,99279.79
2018-03-31T03:01:49.962Z,99277.13
2018-03-31T03:04:16.815Z,99276.95
2018-03-31T03:06:43.744Z,99281.14
2018-03-31T03:09:10.686Z,99278.09
2018-03-31T03:11:37.550Z,99280.06
2018-03-31T03:14:04.391Z,99264.84
2018-03-31T03:16:31.314Z,99263.52
2018-03-31T03:18:58.163Z,99266.41
2018-03-31T03:21:25.023Z,99258.94
2018-03-31T03:23:53.075Z,99258.44
2018-03-31T03:26:19.915Z,99252.14
2018-03-31T03:28:47.795Z,99261.73
2018-03-31T03:31:14.735Z,99272.38
2018-03-31T03:33:41.580Z,99263.70
2018-03-31T03:36:08.511Z,99263.67
2018-03-31T03:38:35.459Z,99265.34
2018-03-31T03:41:02.311Z,99269.45
2018-03-31T03:43:29.171Z,99266.84
2018-03-31T03:45:56.035Z,99269.92
2018-03-31T03:48:22.895Z,99272.91
2018-03-31T03:50:49.771Z,99266.09
2018-03-31T03:53:16.666Z,99281.75
2018-03-31T03:55:43.516Z,99286.77
2018-03-31T03:58:10.452Z,99298.12
2018-03-31T04:00:37.395Z,99293.59
2018-03-31T04:03:04.260Z,99295.11
2018-03-31T04:05:31.111Z,99292.70
2018-03-31T04:07:57.984Z,99288.52
2018-03-31T04:10:24.833Z,99289.80
2018-03-31T04:12:51.686Z,99288.97
2018-03-31T04:15:18.541Z,99283.38
2018-03-31T04:17:45.494Z,99290.20
2018-03-31T04:20:12.355Z,99295.00
2018-03-31T04:22:39.202Z,99287.58
2018-03-31T04:25:06.122Z,99284.14
2018-03-31T04:27:32.975Z,99291.53
2018-03-31T04:29:59.828Z,99287.89
2018-03-31T04:32:26.683Z,99286.92
2018-03-31T04:34:53.535Z,99289.38
2018-03-31T04:37:20.387Z,99292.30
2018-03-31T04:39:47.246Z,99284.87
2018-03-31T04:42:14.101Z,99289.16
2018-03-31T04:44:40.946Z,99290.75
2018-03-31T04:47:07.798Z,99284.08
2018-03-31T04:49:34.673Z,99283.53
2018-03-31T04:52:01.518Z,99284.14
2018-03-31T04:54:28.371Z,99291.17
2018-03-31T04:56:55.241Z,99283.34
2018-03-31T04:59:22.110Z,99291.48
2018-03-31T05:01:48.974Z,99288.42
2018-03-31T05:04:15.831Z,99295.47
2018-03-31T05:06:42.690Z,99293.19
2018-03-31T05:09:09.541Z,99293.40
2018-03-31T05:11:36.426Z,99289.05
2018-03-31T05:14:03.305Z,99286.56
2018-03-31T05:16:30.147Z,99287.69
2018-03-31T05:18:56.998Z,99289.33
2018-03-31T05:21:23.851Z,99288.14
2018-03-31T05:23:50.743Z,99286.24
2018-03-31T05:26:17.578Z,99292.84
2018-03-31T05:28:44.440Z,99290.23
2018-03-31T05:31:11.298Z,99292.71
2018-03-31T05:33:38.154Z,99293.02
2018-03-31T05:36:05.009Z,99304.86
2018-03-31T05:38:31.859Z,99301.18
2018-03-31T05:40:58.707Z,99302.09
2018-03-31T05:43:25.555Z,99302.38
2018-03-31T05:45:52.424Z,99303.08
2018-03-31T05:48:19.366Z,99308.63
2018-03-31T05:50:46.307Z,99305.81
2018-03-31T05:53:13.171Z,99311.95
2018-03-31T05:55:40.015Z,99309.94
2018-03-31T05:58:06.878Z,99317.02
2018-03-31T06:00:33.730Z,99312.16
2018-03-31T06:03:00.627Z,99322.20
2018-03-31T06:05:27.481Z,99318.98
2018-03-31T06:07:54.335Z,99311.03
2018-03-31T06:10:21.250Z,99306.02
2018-03-31T06:12:48.110Z,99316.19
2018-03-31T06:15:15.038Z,99317.83
2018-03-31T06:17:41.894Z,99320.05
2018-03-31T06:20:08.752Z,99324.16
2018-03-31T06:22:35.666Z,99319.75
2018-03-31T06:25:02.523Z,99324.25
2018-03-31T06:27:29.372Z,99322.48
2018-03-31T06:29:56.222Z,99322.37
2018-03-31T06:32:23.078Z,99331.95
2018-03-31T06:34:49.979Z,99325.71
2018-03-31T06:37:16.834Z,99323.50
2018-03-31T06:39:43.678Z,99324.10
2018-03-31T06:42:10.607Z,99326.46
2018-03-31T06:44:37.451Z,99325.92
2018-03-31T06:47:04.311Z,99333.94
2018-03-31T06:49:31.203Z,99332.23
2018-03-31T06:51:58.036Z,99330.74
2018-03-31T06:54:24.918Z,99332.64
2018-03-31T06:56:51.775Z,99337.98
2018-03-31T06:59:18.706Z,99335.68
2018-03-31T07:01:45.579Z,99336.21
2018-03-31T07:04:12.495Z,99332.08
2018-03-31T07:06:39.340Z,99334.59
2018-03-31T07:09:06.288Z,99330.11
2018-03-31T07:11:33.138Z,99334.87
2018-03-31T07:14:00.071Z,99337.48
2018-03-31T07:16:26.922Z,99328.17
2018-03-31T07:18:53.771Z,99336.25
2018-03-31T07:21:20.691Z,99338.31
2018-03-31T07:23:47.549Z,99332.80
2018-03-31T07:26:14.402Z,99326.41
2018-03-31T07:28:41.242Z,99339.69
2018-03-31T07:31:08.754Z,99332.57
2018-03-31T07:33:35.620Z,99338.28
2018-03-31T07:36:02.564Z,99336.91
2018-03-31T07:38:29.420Z,99336.86
2018-03-31T07:40:56.271Z,99332.16
2018-03-31T07:43:23.142Z,99326.09
2018-03-31T07:45:49.978Z,99328.78
2018-03-31T07:48:16.831Z,99333.02
2018-03-31T07:50:43.688Z,99338.19
2018-03-31T07:53:10.562Z,99341.64
2018-03-31T07:55:37.510Z,99341.92
2018-03-31T07:58:04.416Z,99343.00
2018-03-31T08:00:31.320Z,99349.00
2018-03-31T08:02:58.239Z,99345.84
2018-03-31T08:05:25.092Z,99347.38
2018-03-31T08:07:51.940Z,99345.50
2018-03-31T08:10:18.791Z,99341.47
2018-03-31T08:12:45.675Z,99342.36
2018-03-31T08:15:12.523Z,99338.68
2018-03-31T08:17:39.375Z,99340.38
2018-03-31T08:20:06.222Z,99335.58
2018-03-31T08:22:33.122Z,99337.72
2018-03-31T08:24:59.976Z,99344.10
2018-03-31T08:27:26.829Z,99338.27
2018-03-31T08:29:53.684Z,99331.97
2018-03-31T08:32:20.537Z,99337.12
2018-03-31T08:34:47.391Z,99334.89
2018-03-31T08:37:14.236Z,99338.70
2018-03-31T08:39:41.126Z,99342.52
2018-03-31T08:42:07.970Z,99341.09
2018-03-31T08:44:34.916Z,99341.69
2018-03-31T08:47:01.834Z,99342.87
2018-03-31T08:49:28.614Z,99348.77
2018-03-31T08:51:55.467Z,99352.86
2018-03-31T08:54:22.318Z,99345.69
2018-03-31T08:56:49.167Z,99344.83
2018-03-31T08:59:16.083Z,99343.59
2018-03-31T09:01:42.874Z,99355.63
2018-03-31T09:04:09.755Z,99353.73
2018-03-31T09:06:36.604Z,99349.16
2018-03-31T09:09:03.459Z,99350.08
2018-03-31T09:11:30.302Z,99354.77
2018-03-31T09:13:57.223Z,99346.87
2018-03-31T09:16:24.071Z,99349.22
2018-03-31T09:18:50.932Z,99358.66
2018-03-31T09:21:17.784Z,99357.42
2018-03-31T09:23:44.690Z,99356.86
2018-03-31T09:26:11.550Z,99352.16
2018-03-31T09:28:38.413Z,99357.67
2018-03-31T09:31:05.263Z,99351.98
2018-03-31T09:33:32.158Z,99347.66
2018-03-31T09:35:59.016Z,99351.86
2018-03-31T09:38:25.870Z,99347.31
2018-03-31T09:40:52.767Z,99349.85
2018-03-31T09:43:19.602Z,99351.69
2018-03-31T09:45:46.451Z,99344.83
2018-03-31T09:48:13.302Z,99336.64
2018-03-31T09:50:40.155Z,99347.63
2018-03-31T09:53:07.003Z,99349.42
2018-03-31T09:55:33.859Z,99346.13
2018-03-31T09:58:00.731Z,99346.91
2018-03-31T10:00:33.343Z,99348.68
2018-03-31T10:03:00.202Z,99351.83
2018-03-31T10:05:27.158Z,99353.30
2018-03-31T10:07:54.089Z,99352.17
2018-03-31T10:10:20.960Z,99349.93
2018-03-31T10:12:47.799Z,99350.58
2018-03-31T10:15:14.646Z,99344.44
2018-03-31T10:17:41.504Z,99347.31
2018-03-31T10:20:08.415Z,99346.27
2018-03-31T10:22:35.385Z,99341.60
2018-03-31T10:25:02.302Z,99340.11
2018-03-31T10:27:29.155Z,99333.79
2018-03-31T10:29:56.011Z,99337.56
2018-03-31T10:32:22.927Z,99339.64
2018-03-31T10:34:49.808Z,99339.46
2018-03-31T10:37:16.655Z,99341.11
2018-03-31T10:39:43.512Z,99334.88
2018-03-31T10:42:10.395Z,99331.27
2018-03-31T10:44:37.250Z,99334.84
2018-03-31T10:47:04.186Z,99335.39
2018-03-31T10:49:31.051Z,99339.94
2018-03-31T10:51:57.895Z,99333.52
2018-03-31T10:54:24.750Z,99341.83
2018-03-31T10:56:51.659Z,99341.44
2018-03-31T10:59:18.517Z,99340.45
2018-03-31T11:01:45.392Z,99347.51
2018-03-31T11:04:12.283Z,99351.44
2018-03-31T11:06:39.235Z,99351.03
2018-03-31T11:09:06.090Z,99353.54
2018-03-31T11:11:32.943Z,99356.24
2018-03-31T11:13:59.795Z,99353.41
2018-03-31T11:16:26.643Z,99353.34
2018-03-31T11:18:53.523Z,99351.89
2018-03-31T11:21:20.364Z,99353.69
2018-03-31T11:23:47.219Z,99355.59
2018-03-31T11:26:14.069Z,99355.87
2018-03-31T11:28:40.925Z,99356.97
2018-03-31T11:31:07.790Z,99358.17
2018-03-31T11:33:34.652Z,99361.21
2018-03-31T11:36:01.500Z,99359.51
2018-03-31T11:38:28.364Z,99364.94
2018-03-31T11:40:55.233Z,99364.72
2018-03-31T11:43:22.076Z,99365.00
2018-03-31T11:45:48.922Z,99368.64
2018-03-31T11:48:15.783Z,99371.45
2018-03-31T11:50:42.634Z,99372.28
2018-03-31T11:53:09.483Z,99370.80
2018-03-31T11:55:36.351Z,99368.69
2018-03-31T11:58:03.202Z,99379.39
2018-03-31T12:00:30.179Z,99375.86
2018-03-31T12:02:57.023Z,99381.81
2018-03-31T12:05:23.911Z,99371.27
2018-03-31T12:07:50.835Z,99373.30
2018-03-31T12:10:17.704Z,99368.76
2018-03-31T12:12:44.618Z,99375.30
2018-03-31T12:15:11.563Z,99374.98
2018-03-31T12:17:38.406Z,99372.98
2018-03-31T12:20:05.351Z,99373.00
2018-03-31T12:22:32.207Z,99374.17
2018-03-31T12:24:59.130Z,99377.14
2018-03-31T12:27:25.984Z,99371.53
2018-03-31T12:29:52.843Z,99375.61
2018-03-31T12:32:19.767Z,99375.27
2018-03-31T12:34:46.627Z,99376.21
2018-03-31T12:37:13.554Z,99370.80
2018-03-31T12:39:40.430Z,99370.13
2018-03-31T12:42:07.282Z,99370.20
2018-03-31T12:44:34.143Z,99365.23
2018-03-31T12:47:01.036Z,99362.02
2018-03-31T12:49:27.962Z,99364.56
2018-03-31T12:51:54.816Z,99363.73
2018-03-31T12:54:21.751Z,99364.24
2018-03-31T12:56:48.707Z,99353.98
2018-03-31T12:59:16.487Z,99349.09
2018-03-31T13:01:43.334Z,99351.70
2018-03-31T13:04:10.196Z,99346.30
2018-03-31T13:06:37.034Z,99343.07
2018-03-31T13:09:03.894Z,99338.53
2018-03-31T13:11:30.737Z,99344.60
2018-03-31T13:13:57.594Z,99348.86
2018-03-31T13:16:24.447Z,99349.42
2018-03-31T13:18:51.311Z,99349.62
2018-03-31T13:21:18.187Z,99348.12
2018-03-31T13:23:45.047Z,99345.08
2018-03-31T13:26:11.923Z,99349.24
2018-03-31T13:28:38.835Z,99339.06
2018-03-31T13:31:05.696Z,99343.16
2018-03-31T13:33:32.540Z,99343.55
2018-03-31T13:35:59.398Z,99342.10
2018-03-31T13:38:26.264Z,99336.70
2018-03-31T13:40:53.194Z,99341.80
2018-03-31T13:43:20.046Z,99326.94
2018-03-31T13:45:46.897Z,99326.66
2018-03-31T13:48:13.742Z,99329.98
2018-03-31T13:50:40.667Z,99333.69
2018-03-31T13:53:07.615Z,99333.16
2018-03-31T13:55:34.475Z,99333.83
2018-03-31T13:58:01.319Z,99333.21
2018-03-31T14:00:28.239Z,99333.75
2018-03-31T14:02:55.098Z,99340.13
2018-03-31T14:05:21.955Z,99339.13
2018-03-31T14:07:48.790Z,99343.46
2018-03-31T14:10:15.712Z,99344.84
2018-03-31T14:12:42.554Z,99341.80
2018-03-31T14:15:09.504Z,99333.79
2018-03-31T14:17:36.338Z,99341.11
2018-03-31T14:20:03.290Z,99338.98
2018-03-31T14:22:30.279Z,99347.14
2018-03-31T14:24:57.139Z,99343.45
2018-03-31T14:27:23.989Z,99343.63
2018-03-31T14:29:50.875Z,99351.54
2018-03-31T14:32:17.724Z,99350.09
2018-03-31T14:34:44.660Z,99349.89
2018-03-31T14:37:11.506Z,99350.20
2018-03-31T14:39:38.359Z,99358.44
2018-03-31T14:42:05.287Z,99353.55
2018-03-31T14:44:32.252Z,99360.33
2018-03-31T14:46:59.197Z,99363.59
2018-03-31T14:49:26.119Z,99358.52
2018-03-31T14:51:52.994Z,99369.25
2018-03-31T14:54:19.905Z,99369.93
2018-03-31T14:56:46.761Z,99361.59
2018-03-31T14:59:13.611Z,99360.11
2018-03-31T15:01:40.479Z,99366.66
2018-03-31T15:04:07.327Z,99367.19
2018-03-31T15:06:34.219Z,99367.31
2018-03-31T15:09:01.066Z,99376.19
2018-03-31T15:11:27.925Z,99371.37
2018-03-31T15:13:54.772Z,99375.61
2018-03-31T15:16:21.642Z,99370.88
2018-03-31T15:18:48.476Z,99371.73
2018-03-31T15:21:15.330Z,99368.86
2018-03-31T15:23:42.175Z,99372.07
2018-03-31T15:26:09.029Z,99363.80
2018-03-31T15:28:35.915Z,99373.95
2018-03-31T15:31:02.731Z,99381.00
2018-03-31T15:33:29.591Z,99384.27
2018-03-31T15:35:57.250Z,99382.80
2018-03-31T15:38:24.107Z,99385.70
2018-03-31T15:40:50.955Z,99380.47
2018-03-31T15:43:17.811Z,99379.06
2018-03-31T15:45:44.719Z,99385.51
2018-03-31T15:48:11.663Z,99388.39
2018-03-31T15:50:38.530Z,99382.77
2018-03-31T15:53:05.387Z,99383.83
2018-03-31T15:55:32.243Z,99388.19
2018-03-31T15:57:59.134Z,99386.67
2018-03-31T16:00:25.991Z,99385.98
2018-03-31T16:02:52.839Z,99390.59
2018-03-31T16:05:19.690Z,99393.88
2018-03-31T16:07:46.547Z,99389.70
2018-03-31T16:10:13.403Z,99392.73
2018-03-31T16:12:40.257Z,99391.17
2018-03-31T16:15:07.136Z,99401.38
2018-03-31T16:17:33.999Z,99394.14
2018-03-31T16:20:00.926Z,99393.39
2018-03-31T16:22:27.781Z,99401.33
2018-03-31T16:24:54.635Z,99403.23
2018-03-31T16:27:21.478Z,99399.06
2018-03-31T16:29:48.334Z,99404.05
2018-03-31T16:32:15.191Z,99404.88
2018-03-31T16:34:42.135Z,99407.94
2018-03-31T16:37:08.971Z,99408.75
2018-03-31T16:39:35.827Z,99414.91
2018-03-31T16:42:02.686Z,99408.93
2018-03-31T16:44:29.526Z,99409.58
2018-03-31T16:46:56.440Z,99409.23
2018-03-31T16:49:23.250Z,99410.95
2018-03-31T16:51:50.107Z,99418.67
2018-03-31T16:54:16.947Z,99420.98
2018-03-31T16:56:43.802Z,99422.07
2018-03-31T16:59:10.699Z,99424.16
2018-03-31T17:01:37.651Z,99426.92
2018-03-31T17:04:04.544Z,99433.83
2018-03-31T17:06:31.448Z,99436.13
2018-03-31T17:08:58.379Z,99431.72
2018-03-31T17:11:25.240Z,99437.00
2018-03-31T17:13:52.162Z,99438.19
2018-03-31T17:16:19.022Z,99437.47
2018-03-31T17:18:45.866Z,99434.86
2018-03-31T17:21:12.791Z,99441.27
2018-03-31T17:23:39.866Z,99445.81
2018-03-31T17:26:06.799Z,99455.02
2018-03-31T17:28:33.731Z,99455.49
2018-03-31T17:31:00.597Z,99458.75
2018-03-31T17:33:27.434Z,99456.23
2018-03-31T17:35:54.286Z,99460.30
2018-03-31T17:38:21.131Z,99463.50
2018-03-31T17:40:47.996Z,99458.62
2018-03-31T17:43:14.863Z,99462.50
2018-03-31T17:45:41.735Z,99466.28
2018-03-31T17:48:08.593Z,99464.91
2018-03-31T17:50:35.455Z,99473.82
2018-03-31T17:53:02.413Z,99466.09
2018-03-31T17:55:29.280Z,99467.16
2018-03-31T17:57:56.208Z,99461.64
2018-03-31T18:00:23.071Z,99463.38
2018-03-31T18:02:49.987Z,99463.39
2018-03-31T18:05:16.834Z,99463.91
2018-03-31T18:07:43.734Z,99463.38
2018-03-31T18:10:10.583Z,99470.83
2018-03-31T18:12:37.460Z,99475.88
2018-03-31T18:15:04.312Z,99469.80
2018-03-31T18:17:31.223Z,99468.03
2018-03-31T18:19:58.175Z,99469.05
2018-03-31T18:22:25.036Z,99474.73
2018-03-31T18:24:51.882Z,99478.57
2018-03-31T18:27:18.790Z,99476.55
2018-03-31T18:29:45.638Z,99477.27
2018-03-31T18:32:12.591Z,99473.89
2018-03-31T18:34:39.532Z,99480.48
2018-03-31T18:37:06.470Z,99478.22
2018-03-31T18:39:33.418Z,99481.94
2018-03-31T18:42:00.283Z,99487.17
2018-03-31T18:44:27.137Z,99482.83
2018-03-31T18:46:54.000Z,99479.72
2018-03-31T18:49:20.851Z,99482.06
2018-03-31T18:51:47.714Z,99483.84
2018-03-31T18:54:14.562Z,99484.57
2018-03-31T18:56:41.423Z,99484.59
2018-03-31T18:59:08.284Z,99490.58
2018-03-31T19:01:35.170Z,99491.25
2018-03-31T19:04:01.998Z,99497.19
2018-03-31T19:06:28.938Z,99497.24
2018-03-31T19:08:55.787Z,99488.06
2018-03-31T19:11:22.642Z,99488.84
2018-03-31T19:13:49.488Z,99493.59
2018-03-31T19:16:16.343Z,99493.74
2018-03-31T19:18:43.191Z,99499.64
2018-03-31T19:21:10.048Z,99500.64
2018-03-31T19:23:36.899Z,99493.59
2018-03-31T19:26:03.754Z,99497.25
2018-03-31T19:28:30.599Z,99492.97
2018-03-31T19:30:57.459Z,99500.16
2018-03-31T19:33:24.307Z,99495.80
2018-03-31T19:35:56.770Z,99496.52
2018-03-31T19:38:23.614Z,99504.54
2018-03-31T19:40:51.440Z,99501.47
2018-03-31T19:43:18.299Z,99501.78
2018-03-31T19:45:45.138Z,99499.94
2018-03-31T19:48:11.987Z,99490.46
2018-03-31T19:50:38.883Z,99493.16
2018-03-31T19:53:05.743Z,99493.94
2018-03-31T19:55:32.588Z,99492.54
2018-03-31T19:57:59.455Z,99490.23
2018-03-31T20:00:26.307Z,99490.25
2018-03-31T20:02:53.171Z,99491.64
2018-03-31T20:05:20.030Z,99487.69
2018-03-31T20:07:46.889Z,99491.95
2018-03-31T20:10:13.736Z,99495.95
2018-03-31T20:12:40.597Z,99495.73
2018-03-31T20:15:07.443Z,99501.88
2018-03-31T20:17:34.307Z,99501.50
2018-03-31T20:20:01.163Z,99505.42
2018-03-31T20:22:28.023Z,99507.61
2018-03-31T20:24:54.945Z,99502.40
2018-03-31T20:27:21.820Z,99499.06
2018-03-31T20:29:48.658Z,99500.48
2018-03-31T20:32:15.555Z,99498.85
2018-03-31T20:34:42.409Z,99496.62
2018-03-31T20:37:09.279Z,99495.42
2018-03-31T20:39:36.127Z,99496.88
2018-03-31T20:42:03.074Z,99494.16
2018-03-31T20:44:29.916Z,99491.77
2018-03-31T20:46:56.773Z,99484.58
2018-03-31T20:49:23.662Z,99489.89
2018-03-31T20:51:50.515Z,99490.00
2018-03-31T20:54:17.358Z,99494.58
2018-03-31T20:56:45.020Z,99496.26
2018-03-31T20:59:11.854Z,99500.67
2018-03-31T21:01:38.784Z,99498.28
2018-03-31T21:04:05.635Z,99501.88
2018-03-31T21:06:32.489Z,99498.03
2018-03-31T21:08:59.341Z,99501.09
2018-03-31T21:11:26.254Z,99505.56
2018-03-31T21:13:53.095Z,99505.14
2018-03-31T21:16:20.055Z,99508.02
2018-03-31T21:18:46.897Z,99507.23
2018-03-31T21:21:13.738Z,99497.34
2018-03-31T21:23:40.594Z,99506.34
2018-03-31T21:26:07.452Z,99503.58
2018-03-31T21:28:34.305Z,99509.64
2018-03-31T21:31:01.152Z,99506.13
2018-03-31T21:33:28.007Z,99503.25
2018-03-31T21:35:54.846Z,99503.84
2018-03-31T21:38:21.722Z,99504.43
2018-03-31T21:40:48.570Z,99505.72
2018-03-31T21:43:15.418Z,99505.83
2018-03-31T21:45:42.267Z,99500.63
2018-03-31T21:48:09.195Z,99509.98
2018-03-31T21:50:36.050Z,99505.58
2018-03-31T21:53:02.898Z,99504.02
2018-03-31T21:55:29.743Z,99510.47
2018-03-31T21:57:56.602Z,99507.96
2018-03-31T22:00:23.454Z,99505.41
2018-03-31T22:02:50.311Z,99505.32
2018-03-31T22:05:17.186Z,99515.12
2018-03-31T22:07:44.043Z,99514.44
2018-03-31T22:10:10.912Z,99524.10
2018-03-31T22:12:37.768Z,99521.91
2018-03-31T22:15:11.305Z,99528.43
2018-03-31T22:17:38.155Z,99531.38
2018-03-31T22:20:05.099Z,99536.63
2018-03-31T22:22:31.948Z,99533.73
2018-03-31T22:24:58.802Z,99531.73
2018-03-31T22:27:25.727Z,99530.75
2018-03-31T22:29:52.631Z,99531.86
2018-03-31T22:32:19.499Z,99531.62
2018-03-31T22:34:46.414Z,99539.23
2018-03-31T22:37:13.273Z,99531.75
2018-03-31T22:39:40.122Z,99537.76
2018-03-31T22:42:07.052Z,99529.27
2018-03-31T22:44:33.890Z,99534.67
2018-03-31T22:47:00.746Z,99531.73
2018-03-31T22:49:27.602Z,99548.11
2018-03-31T22:51:54.839Z,99541.81
2018-03-31T22:54:21.686Z,99545.83
2018-03-31T22:56:48.550Z,99542.45
2018-03-31T22:59:15.408Z,99536.45
2018-03-31T23:01:42.261Z,99544.48
2018-03-31T23:04:09.116Z,99538.68
2018-03-31T23:06:35.962Z,99544.73
2018-03-31T23:09:02.816Z,99544.77
2018-03-31T23:11:29.770Z,99547.84
2018-03-31T23:13:56.719Z,99550.11
2018-03-31T23:16:23.658Z,99558.85
2018-03-31T23:18:50.513Z,99558.47
2018-03-31T23:21:17.362Z,99561.82
2018-03-31T23:23:44.214Z,99558.63
2018-03-31T23:26:11.067Z,99568.95
2018-03-31T23:28:37.923Z,99565.86
2018-03-31T23:31:04.786Z,99567.67
2018-03-31T23:33:32.662Z,99569.30
2018-03-31T23:35:59.517Z,99574.95
2018-03-31T23:38:26.462Z,99584.45
2018-03-31T23:40:53.347Z,99586.05
2018-03-31T23:43:20.206Z,99582.83
2018-03-31T23:45:47.058Z,99578.88
2018-03-31T23:48:13.913Z,99572.77
2018-03-31T23:50:40.761Z,99563.75
2018-03-31T23:53:07.627Z,99563.88
2018-03-31T23:55:34.471Z,99564.05
2018-03-31T23:58:01.324Z,99563.92
